sensor_id;sensor_type;location;lat;lon;timestamp;P1;durP1;ratioP1;P2;durP2;ratioP2
54143;SDS011;40050;47.324;18.792;2022-09-02T00:00:31;1.67;;;1.10;;
54143;SDS011;40050;47.324;18.792;2022-09-02T00:02:27;1.37;;;1.10;;
54143;SDS011;40050;47.324;18.792;2022-09-02T00:04:30;1.47;;;0.90;;
54143;SDS011;40050;47.324;18.792;2022-09-02T00:06:31;1.76;;;0.90;;
54143;SDS011;40050;47.324;18.792;2022-09-02T00:08:32;3.23;;;1.00;;
54143;SDS011;40050;47.324;18.792;2022-09-02T00:10:34;2.94;;;1.00;;
54143;SDS011;40050;47.324;18.792;2022-09-02T00:12:35;1.57;;;1.00;;
54143;SDS011;40050;47.324;18.792;2022-09-02T00:14:38;2.25;;;1.00;;
54143;SDS011;40050;47.324;18.792;2022-09-02T00:16:39;1.17;;;0.80;;
54143;SDS011;40050;47.324;18.792;2022-09-02T00:18:40;1.37;;;0.90;;
54143;SDS011;40050;47.324;18.792;2022-09-02T00:20:42;3.13;;;1.20;;
54143;SDS011;40050;47.324;18.792;2022-09-02T00:22:42;1.86;;;1.10;;
54143;SDS011;40050;47.324;18.792;2022-09-02T00:24:43;7.33;;;1.30;;
54143;SDS011;40050;47.324;18.792;2022-09-02T00:26:44;3.91;;;1.00;;
54143;SDS011;40050;47.324;18.792;2022-09-02T00:28:46;0.88;;;0.70;;
54143;SDS011;40050;47.324;18.792;2022-09-02T00:30:47;3.42;;;1.10;;
54143;SDS011;40050;47.324;18.792;2022-09-02T00:32:48;3.03;;;0.90;;
54143;SDS011;40050;47.324;18.792;2022-09-02T00:34:49;1.47;;;0.80;;
54143;SDS011;40050;47.324;18.792;2022-09-02T00:36:50;1.76;;;1.00;;
54143;SDS011;40050;47.324;18.792;2022-09-02T00:38:51;3.91;;;0.90;;
54143;SDS011;40050;47.324;18.792;2022-09-02T00:40:52;1.96;;;0.90;;
54143;SDS011;40050;47.324;18.792;2022-09-02T00:42:53;1.37;;;0.90;;
54143;SDS011;40050;47.324;18.792;2022-09-02T00:44:54;1.86;;;1.10;;
54143;SDS011;40050;47.324;18.792;2022-09-02T00:46:56;3.04;;;1.00;;
54143;SDS011;40050;47.324;18.792;2022-09-02T00:51:00;2.15;;;1.10;;
54143;SDS011;40050;47.324;18.792;2022-09-02T00:53:06;1.66;;;0.90;;
54143;SDS011;40050;47.324;18.792;2022-09-02T00:55:14;2.15;;;0.90;;
54143;SDS011;40050;47.324;18.792;2022-09-02T00:57:12;3.52;;;1.10;;
54143;SDS011;40050;47.324;18.792;2022-09-02T00:59:14;3.42;;;1.00;;
54143;SDS011;40050;47.324;18.792;2022-09-02T01:01:14;1.86;;;0.90;;
54143;SDS011;40050;47.324;18.792;2022-09-02T01:03:18;1.27;;;0.90;;
54143;SDS011;40050;47.324;18.792;2022-09-02T01:05:19;1.76;;;0.70;;
54143;SDS011;40050;47.324;18.792;2022-09-02T01:07:19;2.55;;;1.00;;
54143;SDS011;40050;47.324;18.792;2022-09-02T01:09:24;1.66;;;0.80;;
54143;SDS011;40050;47.324;18.792;2022-09-02T01:11:29;3.34;;;0.90;;
54143;SDS011;40050;47.324;18.792;2022-09-02T01:13:30;1.77;;;0.90;;
54143;SDS011;40050;47.324;18.792;2022-09-02T01:15:31;1.28;;;0.80;;
54143;SDS011;40050;47.324;18.792;2022-09-02T01:17:32;0.98;;;0.70;;
54143;SDS011;40050;47.324;18.792;2022-09-02T01:19:41;0.89;;;0.60;;
54143;SDS011;40050;47.324;18.792;2022-09-02T01:21:37;2.36;;;0.80;;
54143;SDS011;40050;47.324;18.792;2022-09-02T01:23:38;1.28;;;0.70;;
54143;SDS011;40050;47.324;18.792;2022-09-02T01:25:42;1.38;;;0.80;;
54143;SDS011;40050;47.324;18.792;2022-09-02T01:27:48;2.46;;;0.80;;
54143;SDS011;40050;47.324;18.792;2022-09-02T01:29:52;2.26;;;0.80;;
54143;SDS011;40050;47.324;18.792;2022-09-02T01:31:49;0.98;;;0.70;;
54143;SDS011;40050;47.324;18.792;2022-09-02T01:33:51;1.87;;;0.70;;
54143;SDS011;40050;47.324;18.792;2022-09-02T01:35:53;1.08;;;0.70;;
54143;SDS011;40050;47.324;18.792;2022-09-02T01:37:55;1.28;;;0.90;;
54143;SDS011;40050;47.324;18.792;2022-09-02T01:39:54;1.67;;;0.90;;
54143;SDS011;40050;47.324;18.792;2022-09-02T01:41:55;2.55;;;1.00;;
54143;SDS011;40050;47.324;18.792;2022-09-02T01:43:57;1.47;;;0.70;;
54143;SDS011;40050;47.324;18.792;2022-09-02T01:45:58;2.36;;;0.80;;
54143;SDS011;40050;47.324;18.792;2022-09-02T01:47:59;1.27;;;0.70;;
54143;SDS011;40050;47.324;18.792;2022-09-02T01:50:01;1.57;;;0.80;;
54143;SDS011;40050;47.324;18.792;2022-09-02T01:52:02;1.28;;;0.80;;
54143;SDS011;40050;47.324;18.792;2022-09-02T01:54:03;1.18;;;0.80;;
54143;SDS011;40050;47.324;18.792;2022-09-02T01:56:04;0.98;;;0.70;;
54143;SDS011;40050;47.324;18.792;2022-09-02T01:58:05;1.27;;;0.70;;
54143;SDS011;40050;47.324;18.792;2022-09-02T02:00:07;1.77;;;0.90;;
54143;SDS011;40050;47.324;18.792;2022-09-02T02:02:07;1.57;;;0.70;;
54143;SDS011;40050;47.324;18.792;2022-09-02T02:04:08;3.23;;;0.80;;
54143;SDS011;40050;47.324;18.792;2022-09-02T02:06:13;1.17;;;0.60;;
54143;SDS011;40050;47.324;18.792;2022-09-02T02:08:11;1.66;;;0.80;;
54143;SDS011;40050;47.324;18.792;2022-09-02T02:10:13;2.35;;;0.80;;
54143;SDS011;40050;47.324;18.792;2022-09-02T02:12:14;1.17;;;0.80;;
54143;SDS011;40050;47.324;18.792;2022-09-02T02:14:15;0.88;;;0.80;;
54143;SDS011;40050;47.324;18.792;2022-09-02T02:16:16;1.27;;;0.70;;
54143;SDS011;40050;47.324;18.792;2022-09-02T02:18:17;1.27;;;0.80;;
54143;SDS011;40050;47.324;18.792;2022-09-02T02:20:19;1.86;;;0.80;;
54143;SDS011;40050;47.324;18.792;2022-09-02T02:22:19;1.96;;;0.90;;
54143;SDS011;40050;47.324;18.792;2022-09-02T02:24:20;1.08;;;0.70;;
54143;SDS011;40050;47.324;18.792;2022-09-02T02:26:21;1.77;;;0.60;;
54143;SDS011;40050;47.324;18.792;2022-09-02T02:28:22;0.88;;;0.70;;
54143;SDS011;40050;47.324;18.792;2022-09-02T02:30:22;2.84;;;1.00;;
54143;SDS011;40050;47.324;18.792;2022-09-02T02:32:23;2.74;;;0.80;;
54143;SDS011;40050;47.324;18.792;2022-09-02T02:34:24;1.47;;;0.80;;
54143;SDS011;40050;47.324;18.792;2022-09-02T02:36:26;2.55;;;0.80;;
54143;SDS011;40050;47.324;18.792;2022-09-02T02:38:27;1.37;;;0.60;;
54143;SDS011;40050;47.324;18.792;2022-09-02T02:40:28;1.27;;;0.70;;
54143;SDS011;40050;47.324;18.792;2022-09-02T02:42:29;1.37;;;0.80;;
54143;SDS011;40050;47.324;18.792;2022-09-02T02:44:30;1.87;;;0.90;;
54143;SDS011;40050;47.324;18.792;2022-09-02T02:46:31;0.98;;;0.70;;
54143;SDS011;40050;47.324;18.792;2022-09-02T02:48:33;1.67;;;0.80;;
54143;SDS011;40050;47.324;18.792;2022-09-02T02:50:33;2.26;;;0.70;;
54143;SDS011;40050;47.324;18.792;2022-09-02T02:52:35;2.84;;;0.80;;
54143;SDS011;40050;47.324;18.792;2022-09-02T02:54:35;1.18;;;0.80;;
54143;SDS011;40050;47.324;18.792;2022-09-02T02:56:37;2.75;;;0.70;;
54143;SDS011;40050;47.324;18.792;2022-09-02T02:58:38;1.08;;;0.70;;
54143;SDS011;40050;47.324;18.792;2022-09-02T03:00:41;1.08;;;0.70;;
54143;SDS011;40050;47.324;18.792;2022-09-02T03:02:42;2.16;;;0.80;;
54143;SDS011;40050;47.324;18.792;2022-09-02T03:04:43;1.86;;;0.80;;
54143;SDS011;40050;47.324;18.792;2022-09-02T03:06:44;1.37;;;0.70;;
54143;SDS011;40050;47.324;18.792;2022-09-02T03:08:46;3.13;;;0.80;;
54143;SDS011;40050;47.324;18.792;2022-09-02T03:10:48;1.08;;;0.70;;
54143;SDS011;40050;47.324;18.792;2022-09-02T03:12:48;4.01;;;0.80;;
54143;SDS011;40050;47.324;18.792;2022-09-02T03:14:49;1.56;;;0.80;;
54143;SDS011;40050;47.324;18.792;2022-09-02T03:16:50;1.46;;;0.60;;
54143;SDS011;40050;47.324;18.792;2022-09-02T03:18:51;1.17;;;0.70;;
54143;SDS011;40050;47.324;18.792;2022-09-02T03:20:53;4.29;;;0.80;;
54143;SDS011;40050;47.324;18.792;2022-09-02T03:22:55;1.85;;;0.80;;
54143;SDS011;40050;47.324;18.792;2022-09-02T03:24:55;0.98;;;0.60;;
54143;SDS011;40050;47.324;18.792;2022-09-02T03:26:56;4.79;;;0.60;;
54143;SDS011;40050;47.324;18.792;2022-09-02T03:28:57;2.93;;;0.70;;
54143;SDS011;40050;47.324;18.792;2022-09-02T03:30:59;2.64;;;0.70;;
54143;SDS011;40050;47.324;18.792;2022-09-02T03:33:01;2.34;;;0.80;;
54143;SDS011;40050;47.324;18.792;2022-09-02T03:35:03;2.34;;;0.80;;
54143;SDS011;40050;47.324;18.792;2022-09-02T03:37:05;2.44;;;0.70;;
54143;SDS011;40050;47.324;18.792;2022-09-02T03:39:06;1.56;;;0.70;;
54143;SDS011;40050;47.324;18.792;2022-09-02T03:41:07;1.66;;;0.70;;
54143;SDS011;40050;47.324;18.792;2022-09-02T03:43:08;1.37;;;0.70;;
54143;SDS011;40050;47.324;18.792;2022-09-02T03:45:09;0.78;;;0.60;;
54143;SDS011;40050;47.324;18.792;2022-09-02T03:47:10;1.46;;;0.70;;
54143;SDS011;40050;47.324;18.792;2022-09-02T03:49:11;2.15;;;0.70;;
54143;SDS011;40050;47.324;18.792;2022-09-02T03:51:13;1.76;;;0.70;;
54143;SDS011;40050;47.324;18.792;2022-09-02T03:53:14;1.07;;;0.60;;
54143;SDS011;40050;47.324;18.792;2022-09-02T03:55:16;1.46;;;0.60;;
54143;SDS011;40050;47.324;18.792;2022-09-02T03:57:16;1.27;;;0.80;;
54143;SDS011;40050;47.324;18.792;2022-09-02T03:59:18;1.76;;;0.70;;
54143;SDS011;40050;47.324;18.792;2022-09-02T04:01:21;1.95;;;0.90;;
54143;SDS011;40050;47.324;18.792;2022-09-02T04:03:22;3.32;;;0.80;;
54143;SDS011;40050;47.324;18.792;2022-09-02T04:05:23;1.56;;;0.70;;
54143;SDS011;40050;47.324;18.792;2022-09-02T04:07:23;1.66;;;0.60;;
54143;SDS011;40050;47.324;18.792;2022-09-02T04:09:24;1.07;;;0.70;;
54143;SDS011;40050;47.324;18.792;2022-09-02T04:11:25;2.15;;;0.70;;
54143;SDS011;40050;47.324;18.792;2022-09-02T04:13:26;0.68;;;0.60;;
54143;SDS011;40050;47.324;18.792;2022-09-02T04:15:27;3.61;;;0.80;;
54143;SDS011;40050;47.324;18.792;2022-09-02T04:17:28;1.76;;;0.80;;
54143;SDS011;40050;47.324;18.792;2022-09-02T04:19:29;1.46;;;0.80;;
54143;SDS011;40050;47.324;18.792;2022-09-02T04:21:34;1.17;;;0.60;;
54143;SDS011;40050;47.324;18.792;2022-09-02T04:23:32;1.95;;;0.80;;
54143;SDS011;40050;47.324;18.792;2022-09-02T04:25:36;2.24;;;0.90;;
54143;SDS011;40050;47.324;18.792;2022-09-02T04:27:35;3.32;;;0.80;;
54143;SDS011;40050;47.324;18.792;2022-09-02T04:29:35;1.56;;;0.70;;
54143;SDS011;40050;47.324;18.792;2022-09-02T04:31:41;1.85;;;0.90;;
54143;SDS011;40050;47.324;18.792;2022-09-02T04:33:42;1.47;;;0.80;;
54143;SDS011;40050;47.324;18.792;2022-09-02T04:35:43;1.76;;;0.70;;
54143;SDS011;40050;47.324;18.792;2022-09-02T04:37:43;1.85;;;0.70;;
54143;SDS011;40050;47.324;18.792;2022-09-02T04:39:44;3.51;;;1.00;;
54143;SDS011;40050;47.324;18.792;2022-09-02T04:41:47;1.27;;;0.80;;
54143;SDS011;40050;47.324;18.792;2022-09-02T04:43:48;3.91;;;0.80;;
54143;SDS011;40050;47.324;18.792;2022-09-02T04:45:49;1.08;;;0.70;;
54143;SDS011;40050;47.324;18.792;2022-09-02T04:47:50;3.13;;;0.80;;
54143;SDS011;40050;47.324;18.792;2022-09-02T04:49:51;2.54;;;0.80;;
54143;SDS011;40050;47.324;18.792;2022-09-02T04:51:53;1.17;;;0.70;;
54143;SDS011;40050;47.324;18.792;2022-09-02T04:53:54;2.14;;;0.70;;
54143;SDS011;40050;47.324;18.792;2022-09-02T04:55:55;0.97;;;0.70;;
54143;SDS011;40050;47.324;18.792;2022-09-02T04:57:56;2.63;;;0.90;;
54143;SDS011;40050;47.324;18.792;2022-09-02T04:59:57;5.05;;;1.20;;
54143;SDS011;40050;47.324;18.792;2022-09-02T05:01:59;6.21;;;1.39;;
54143;SDS011;40050;47.324;18.792;2022-09-02T05:04:01;3.52;;;1.19;;
54143;SDS011;40050;47.324;18.792;2022-09-02T05:06:02;4.10;;;1.29;;
54143;SDS011;40050;47.324;18.792;2022-09-02T05:08:05;2.41;;;0.90;;
54143;SDS011;40050;47.324;18.792;2022-09-02T05:10:06;2.22;;;1.00;;
54143;SDS011;40050;47.324;18.792;2022-09-02T05:12:06;2.32;;;0.90;;
54143;SDS011;40050;47.324;18.792;2022-09-02T05:14:08;1.55;;;0.90;;
54143;SDS011;40050;47.324;18.792;2022-09-02T05:16:09;2.13;;;0.90;;
54143;SDS011;40050;47.324;18.792;2022-09-02T05:18:17;2.81;;;1.00;;
54143;SDS011;40050;47.324;18.792;2022-09-02T05:20:18;2.13;;;0.80;;
54143;SDS011;40050;47.324;18.792;2022-09-02T05:22:14;4.95;;;0.90;;
54143;SDS011;40050;47.324;18.792;2022-09-02T05:24:15;2.35;;;0.70;;
54143;SDS011;40050;47.324;18.792;2022-09-02T05:26:15;1.07;;;0.70;;
54143;SDS011;40050;47.324;18.792;2022-09-02T05:28:16;2.34;;;0.80;;
54143;SDS011;40050;47.324;18.792;2022-09-02T05:30:17;2.53;;;0.90;;
54143;SDS011;40050;47.324;18.792;2022-09-02T05:32:18;1.65;;;0.60;;
54143;SDS011;40050;47.324;18.792;2022-09-02T05:34:19;1.67;;;0.80;;
54143;SDS011;40050;47.324;18.792;2022-09-02T05:36:21;1.76;;;0.80;;
54143;SDS011;40050;47.324;18.792;2022-09-02T05:38:21;1.96;;;0.90;;
54143;SDS011;40050;47.324;18.792;2022-09-02T05:40:22;2.16;;;0.80;;
54143;SDS011;40050;47.324;18.792;2022-09-02T05:42:23;5.49;;;0.90;;
54143;SDS011;40050;47.324;18.792;2022-09-02T05:44:26;4.52;;;1.30;;
54143;SDS011;40050;47.324;18.792;2022-09-02T05:46:27;3.04;;;0.80;;
54143;SDS011;40050;47.324;18.792;2022-09-02T05:48:28;2.96;;;0.80;;
54143;SDS011;40050;47.324;18.792;2022-09-02T05:50:29;2.16;;;0.80;;
54143;SDS011;40050;47.324;18.792;2022-09-02T05:52:30;2.17;;;0.70;;
54143;SDS011;40050;47.324;18.792;2022-09-02T05:54:32;1.08;;;0.70;;
54143;SDS011;40050;47.324;18.792;2022-09-02T05:56:38;0.98;;;0.70;;
54143;SDS011;40050;47.324;18.792;2022-09-02T05:58:36;2.17;;;0.70;;
54143;SDS011;40050;47.324;18.792;2022-09-02T06:00:38;1.48;;;0.80;;
54143;SDS011;40050;47.324;18.792;2022-09-02T06:02:40;1.58;;;0.80;;
54143;SDS011;40050;47.324;18.792;2022-09-02T06:04:42;1.67;;;0.80;;
54143;SDS011;40050;47.324;18.792;2022-09-02T06:06:43;2.37;;;0.90;;
54143;SDS011;40050;47.324;18.792;2022-09-02T06:08:43;2.17;;;0.80;;
54143;SDS011;40050;47.324;18.792;2022-09-02T06:10:44;1.98;;;0.80;;
54143;SDS011;40050;47.324;18.792;2022-09-02T06:12:46;3.76;;;0.90;;
54143;SDS011;40050;47.324;18.792;2022-09-02T06:14:48;1.48;;;0.80;;
54143;SDS011;40050;47.324;18.792;2022-09-02T06:16:49;1.78;;;0.70;;
54143;SDS011;40050;47.324;18.792;2022-09-02T06:18:51;3.36;;;0.90;;
54143;SDS011;40050;47.324;18.792;2022-09-02T06:20:51;2.37;;;0.70;;
54143;SDS011;40050;47.324;18.792;2022-09-02T06:22:52;3.76;;;1.00;;
54143;SDS011;40050;47.324;18.792;2022-09-02T06:24:53;2.18;;;1.00;;
54143;SDS011;40050;47.324;18.792;2022-09-02T06:26:54;1.98;;;0.70;;
54143;SDS011;40050;47.324;18.792;2022-09-02T06:28:55;1.29;;;0.70;;
54143;SDS011;40050;47.324;18.792;2022-09-02T06:30:56;3.08;;;1.00;;
54143;SDS011;40050;47.324;18.792;2022-09-02T06:32:57;2.98;;;0.70;;
54143;SDS011;40050;47.324;18.792;2022-09-02T06:34:58;2.58;;;0.70;;
54143;SDS011;40050;47.324;18.792;2022-09-02T06:37:00;4.66;;;0.90;;
54143;SDS011;40050;47.324;18.792;2022-09-02T06:39:00;2.38;;;0.70;;
54143;SDS011;40050;47.324;18.792;2022-09-02T06:41:02;2.19;;;0.90;;
54143;SDS011;40050;47.324;18.792;2022-09-02T06:43:03;1.39;;;0.80;;
54143;SDS011;40050;47.324;18.792;2022-09-02T06:45:04;2.78;;;0.90;;
54143;SDS011;40050;47.324;18.792;2022-09-02T06:47:06;1.59;;;1.00;;
54143;SDS011;40050;47.324;18.792;2022-09-02T06:49:07;1.29;;;0.70;;
54143;SDS011;40050;47.324;18.792;2022-09-02T06:51:19;2.19;;;0.80;;
54143;SDS011;40050;47.324;18.792;2022-09-02T06:53:13;1.29;;;0.70;;
54143;SDS011;40050;47.324;18.792;2022-09-02T06:55:14;2.58;;;1.00;;
54143;SDS011;40050;47.324;18.792;2022-09-02T06:57:16;3.98;;;1.00;;
54143;SDS011;40050;47.324;18.792;2022-09-02T06:59:18;2.68;;;0.90;;
54143;SDS011;40050;47.324;18.792;2022-09-02T07:01:20;1.79;;;1.00;;
54143;SDS011;40050;47.324;18.792;2022-09-02T07:03:20;2.09;;;0.70;;
54143;SDS011;40050;47.324;18.792;2022-09-02T07:05:21;1.29;;;0.80;;
54143;SDS011;40050;47.324;18.792;2022-09-02T07:07:23;2.19;;;1.00;;
54143;SDS011;40050;47.324;18.792;2022-09-02T07:09:25;1.89;;;0.90;;
54143;SDS011;40050;47.324;18.792;2022-09-02T07:11:25;1.99;;;0.80;;
54143;SDS011;40050;47.324;18.792;2022-09-02T07:13:26;1.89;;;0.90;;
54143;SDS011;40050;47.324;18.792;2022-09-02T07:15:27;2.89;;;1.00;;
54143;SDS011;40050;47.324;18.792;2022-09-02T07:17:28;1.49;;;0.90;;
54143;SDS011;40050;47.324;18.792;2022-09-02T07:19:29;3.08;;;0.70;;
54143;SDS011;40050;47.324;18.792;2022-09-02T07:21:31;6.27;;;1.10;;
54143;SDS011;40050;47.324;18.792;2022-09-02T07:23:32;2.78;;;1.00;;
54143;SDS011;40050;47.324;18.792;2022-09-02T07:25:33;3.08;;;0.80;;
54143;SDS011;40050;47.324;18.792;2022-09-02T07:27:34;1.69;;;0.90;;
54143;SDS011;40050;47.324;18.792;2022-09-02T07:29:36;3.58;;;0.90;;
54143;SDS011;40050;47.324;18.792;2022-09-02T07:31:42;1.29;;;0.70;;
54143;SDS011;40050;47.324;18.792;2022-09-02T07:33:43;1.49;;;0.90;;
54143;SDS011;40050;47.324;18.792;2022-09-02T07:35:44;1.29;;;0.70;;
54143;SDS011;40050;47.324;18.792;2022-09-02T07:37:45;2.59;;;1.10;;
54143;SDS011;40050;47.324;18.792;2022-09-02T07:39:47;1.39;;;0.80;;
54143;SDS011;40050;47.324;18.792;2022-09-02T07:41:49;2.59;;;1.00;;
54143;SDS011;40050;47.324;18.792;2022-09-02T07:43:49;2.29;;;0.90;;
54143;SDS011;40050;47.324;18.792;2022-09-02T07:45:49;1.50;;;0.90;;
54143;SDS011;40050;47.324;18.792;2022-09-02T07:47:50;1.50;;;0.80;;
54143;SDS011;40050;47.324;18.792;2022-09-02T07:49:52;2.39;;;0.80;;
54143;SDS011;40050;47.324;18.792;2022-09-02T07:51:53;2.49;;;0.80;;
54143;SDS011;40050;47.324;18.792;2022-09-02T07:53:55;2.09;;;0.90;;
54143;SDS011;40050;47.324;18.792;2022-09-02T07:55:56;1.30;;;0.80;;
54143;SDS011;40050;47.324;18.792;2022-09-02T07:57:57;2.69;;;1.20;;
54143;SDS011;40050;47.324;18.792;2022-09-02T07:59:58;1.69;;;0.70;;
54143;SDS011;40050;47.324;18.792;2022-09-02T08:01:59;1.49;;;0.70;;
54143;SDS011;40050;47.324;18.792;2022-09-02T08:04:00;2.39;;;0.80;;
54143;SDS011;40050;47.324;18.792;2022-09-02T08:06:02;1.70;;;0.70;;
54143;SDS011;40050;47.324;18.792;2022-09-02T08:08:03;1.59;;;0.90;;
54143;SDS011;40050;47.324;18.792;2022-09-02T08:10:05;2.89;;;0.90;;
54143;SDS011;40050;47.324;18.792;2022-09-02T08:12:04;2.99;;;1.00;;
54143;SDS011;40050;47.324;18.792;2022-09-02T08:14:10;2.09;;;0.90;;
54143;SDS011;40050;47.324;18.792;2022-09-02T08:16:08;2.09;;;1.10;;
54143;SDS011;40050;47.324;18.792;2022-09-02T08:18:09;1.40;;;0.80;;
54143;SDS011;40050;47.324;18.792;2022-09-02T08:20:10;2.19;;;0.80;;
54143;SDS011;40050;47.324;18.792;2022-09-02T08:22:11;2.59;;;1.00;;
54143;SDS011;40050;47.324;18.792;2022-09-02T08:24:12;1.90;;;1.00;;
54143;SDS011;40050;47.324;18.792;2022-09-02T08:26:13;1.60;;;0.80;;
54143;SDS011;40050;47.324;18.792;2022-09-02T08:28:14;6.48;;;1.30;;
54143;SDS011;40050;47.324;18.792;2022-09-02T08:30:15;2.59;;;1.00;;
54143;SDS011;40050;47.324;18.792;2022-09-02T08:32:16;2.10;;;0.80;;
54143;SDS011;40050;47.324;18.792;2022-09-02T08:34:17;4.69;;;1.00;;
54143;SDS011;40050;47.324;18.792;2022-09-02T08:36:18;2.39;;;0.90;;
54143;SDS011;40050;47.324;18.792;2022-09-02T08:38:19;2.49;;;0.80;;
54143;SDS011;40050;47.324;18.792;2022-09-02T08:40:21;2.10;;;1.00;;
54143;SDS011;40050;47.324;18.792;2022-09-02T08:42:42;2.60;;;1.10;;
54143;SDS011;40050;47.324;18.792;2022-09-02T08:44:46;2.40;;;1.10;;
54143;SDS011;40050;47.324;18.792;2022-09-02T08:46:49;1.60;;;1.00;;
54143;SDS011;40050;47.324;18.792;2022-09-02T08:48:58;1.80;;;1.00;;
54143;SDS011;40050;47.324;18.792;2022-09-02T08:51:03;1.60;;;0.90;;
54143;SDS011;40050;47.324;18.792;2022-09-02T08:53:09;2.89;;;1.00;;
54143;SDS011;40050;47.324;18.792;2022-09-02T08:55:23;8.58;;;1.60;;
54143;SDS011;40050;47.324;18.792;2022-09-02T08:57:21;5.69;;;1.10;;
54143;SDS011;40050;47.324;18.792;2022-09-02T08:59:22;2.79;;;1.10;;
54143;SDS011;40050;47.324;18.792;2022-09-02T09:04:08;3.30;;;1.10;;
54143;SDS011;40050;47.324;18.792;2022-09-02T09:06:08;3.79;;;1.10;;
54143;SDS011;40050;47.324;18.792;2022-09-02T09:08:27;3.40;;;1.00;;
54143;SDS011;40050;47.324;18.792;2022-09-02T09:10:54;2.60;;;1.00;;
54143;SDS011;40050;47.324;18.792;2022-09-02T09:15:04;4.49;;;1.20;;
54143;SDS011;40050;47.324;18.792;2022-09-02T09:20:00;4.50;;;1.10;;
54143;SDS011;40050;47.324;18.792;2022-09-02T09:21:30;2.90;;;1.00;;
54143;SDS011;40050;47.324;18.792;2022-09-02T09:23:35;3.50;;;0.90;;
54143;SDS011;40050;47.324;18.792;2022-09-02T09:25:39;2.50;;;1.00;;
54143;SDS011;40050;47.324;18.792;2022-09-02T09:27:51;2.10;;;1.10;;
54143;SDS011;40050;47.324;18.792;2022-09-02T09:29:52;2.80;;;1.10;;
54143;SDS011;40050;47.324;18.792;2022-09-02T09:31:56;2.70;;;1.00;;
54143;SDS011;40050;47.324;18.792;2022-09-02T09:34:05;4.00;;;1.00;;
54143;SDS011;40050;47.324;18.792;2022-09-02T09:35:58;2.30;;;1.10;;
54143;SDS011;40050;47.324;18.792;2022-09-02T09:38:01;3.60;;;1.10;;
54143;SDS011;40050;47.324;18.792;2022-09-02T09:40:28;1.30;;;0.80;;
54143;SDS011;40050;47.324;18.792;2022-09-02T09:42:11;3.80;;;1.00;;
54143;SDS011;40050;47.324;18.792;2022-09-02T09:44:05;2.00;;;1.00;;
54143;SDS011;40050;47.324;18.792;2022-09-02T09:46:25;2.20;;;0.90;;
54143;SDS011;40050;47.324;18.792;2022-09-02T09:48:17;3.30;;;1.00;;
54143;SDS011;40050;47.324;18.792;2022-09-02T09:50:18;3.00;;;0.90;;
54143;SDS011;40050;47.324;18.792;2022-09-02T09:52:26;3.80;;;1.00;;
54143;SDS011;40050;47.324;18.792;2022-09-02T09:54:39;1.90;;;1.20;;
54143;SDS011;40050;47.324;18.792;2022-09-02T09:57:20;2.30;;;1.10;;
54143;SDS011;40050;47.324;18.792;2022-09-02T09:59:30;1.90;;;1.10;;
54143;SDS011;40050;47.324;18.792;2022-09-02T10:01:18;4.79;;;1.20;;
54143;SDS011;40050;47.324;18.792;2022-09-02T10:03:21;5.49;;;1.40;;
54143;SDS011;40050;47.324;18.792;2022-09-02T10:05:35;3.20;;;1.30;;
54143;SDS011;40050;47.324;18.792;2022-09-02T10:07:33;3.30;;;1.00;;
54143;SDS011;40050;47.324;18.792;2022-09-02T10:09:32;2.70;;;1.00;;
54143;SDS011;40050;47.324;18.792;2022-09-02T10:11:35;2.90;;;1.20;;
54143;SDS011;40050;47.324;18.792;2022-09-02T10:13:55;1.80;;;1.00;;
54143;SDS011;40050;47.324;18.792;2022-09-02T10:16:14;1.70;;;1.10;;
54143;SDS011;40050;47.324;18.792;2022-09-02T10:18:31;2.20;;;1.10;;
54143;SDS011;40050;47.324;18.792;2022-09-02T10:22:55;3.00;;;1.30;;
54143;SDS011;40050;47.324;18.792;2022-09-02T10:25:27;3.69;;;1.20;;
54143;SDS011;40050;47.324;18.792;2022-09-02T10:29:46;3.10;;;1.20;;
54143;SDS011;40050;47.324;18.792;2022-09-02T10:36:38;2.30;;;1.10;;
54143;SDS011;40050;47.324;18.792;2022-09-02T10:38:48;1.60;;;1.00;;
54143;SDS011;40050;47.324;18.792;2022-09-02T10:43:06;1.60;;;1.00;;
54143;SDS011;40050;47.324;18.792;2022-09-02T10:47:35;2.70;;;1.20;;
54143;SDS011;40050;47.324;18.792;2022-09-02T10:50:02;2.60;;;1.10;;
54143;SDS011;40050;47.324;18.792;2022-09-02T10:52:12;2.10;;;0.90;;
54143;SDS011;40050;47.324;18.792;2022-09-02T10:54:29;4.19;;;1.20;;
54143;SDS011;40050;47.324;18.792;2022-09-02T10:56:36;3.30;;;1.10;;
54143;SDS011;40050;47.324;18.792;2022-09-02T10:58:44;2.50;;;1.10;;
54143;SDS011;40050;47.324;18.792;2022-09-02T11:00:49;2.30;;;1.10;;
54143;SDS011;40050;47.324;18.792;2022-09-02T11:05:11;2.50;;;1.20;;
54143;SDS011;40050;47.324;18.792;2022-09-02T11:07:12;2.40;;;1.00;;
54143;SDS011;40050;47.324;18.792;2022-09-02T11:09:36;1.20;;;1.00;;
54143;SDS011;40050;47.324;18.792;2022-09-02T11:11:31;6.09;;;1.10;;
54143;SDS011;40050;47.324;18.792;2022-09-02T11:13:42;2.70;;;1.20;;
54143;SDS011;40050;47.324;18.792;2022-09-02T11:22:29;2.70;;;1.50;;
54143;SDS011;40050;47.324;18.792;2022-09-02T11:26:58;2.60;;;1.20;;
54143;SDS011;40050;47.324;18.792;2022-09-02T11:29:19;2.10;;;1.20;;
54143;SDS011;40050;47.324;18.792;2022-09-02T11:31:32;2.60;;;1.00;;
54143;SDS011;40050;47.324;18.792;2022-09-02T11:35:36;3.30;;;1.10;;
54143;SDS011;40050;47.324;18.792;2022-09-02T11:37:43;3.20;;;1.30;;
54143;SDS011;40050;47.324;18.792;2022-09-02T11:39:49;1.60;;;1.00;;
54143;SDS011;40050;47.324;18.792;2022-09-02T11:45:02;2.20;;;1.20;;
54143;SDS011;40050;47.324;18.792;2022-09-02T11:48:58;2.20;;;1.20;;
54143;SDS011;40050;47.324;18.792;2022-09-02T11:53:39;2.00;;;1.00;;
54143;SDS011;40050;47.324;18.792;2022-09-02T11:55:41;2.80;;;1.20;;
54143;SDS011;40050;47.324;18.792;2022-09-02T11:57:49;4.79;;;1.70;;
54143;SDS011;40050;47.324;18.792;2022-09-02T12:00:03;2.10;;;1.20;;
54143;SDS011;40050;47.324;18.792;2022-09-02T12:02:05;2.80;;;1.10;;
54143;SDS011;40050;47.324;18.792;2022-09-02T12:04:17;6.39;;;1.30;;
54143;SDS011;40050;47.324;18.792;2022-09-02T12:06:17;5.69;;;1.40;;
54143;SDS011;40050;47.324;18.792;2022-09-02T12:16:44;2.90;;;1.00;;
54143;SDS011;40050;47.324;18.792;2022-09-02T12:21:28;1.90;;;1.00;;
54143;SDS011;40050;47.324;18.792;2022-09-02T12:25:41;1.70;;;1.00;;
54143;SDS011;40050;47.324;18.792;2022-09-02T12:27:36;1.70;;;1.00;;
54143;SDS011;40050;47.324;18.792;2022-09-02T12:30:03;1.50;;;0.80;;
54143;SDS011;40050;47.324;18.792;2022-09-02T12:38:39;1.80;;;1.10;;
54143;SDS011;40050;47.324;18.792;2022-09-02T12:42:51;3.00;;;1.00;;
54143;SDS011;40050;47.324;18.792;2022-09-02T12:45:14;3.20;;;1.00;;
54143;SDS011;40050;47.324;18.792;2022-09-02T12:49:38;4.19;;;1.10;;
54143;SDS011;40050;47.324;18.792;2022-09-02T12:52:04;2.10;;;1.10;;
54143;SDS011;40050;47.324;18.792;2022-09-02T12:53:50;2.00;;;0.90;;
54143;SDS011;40050;47.324;18.792;2022-09-02T12:58:10;3.20;;;1.20;;
54143;SDS011;40050;47.324;18.792;2022-09-02T13:00:16;2.30;;;1.20;;
54143;SDS011;40050;47.324;18.792;2022-09-02T13:07:38;1.60;;;0.90;;
54143;SDS011;40050;47.324;18.792;2022-09-02T13:16:21;3.10;;;1.20;;
54143;SDS011;40050;47.324;18.792;2022-09-02T13:20:57;4.00;;;1.00;;
54143;SDS011;40050;47.324;18.792;2022-09-02T13:27:36;3.00;;;1.30;;
54143;SDS011;40050;47.324;18.792;2022-09-02T13:32:09;3.50;;;1.00;;
54143;SDS011;40050;47.324;18.792;2022-09-02T13:33:55;3.20;;;1.30;;
54143;SDS011;40050;47.324;18.792;2022-09-02T13:35:52;2.30;;;1.10;;
54143;SDS011;40050;47.324;18.792;2022-09-02T13:38:10;2.10;;;1.20;;
54143;SDS011;40050;47.324;18.792;2022-09-02T13:40:16;1.60;;;1.10;;